MAPA DE AEROPUERTO

INFORMACIÓN METAR y TAF


Deprecated: The each() function is deprecated. This message will be suppressed on further calls in /home/customer/www/clickair-va.com/public_html/VAM/vam/helpers/get_metar.php on line 20
METAR FOR YSSY
ADDS - METARS form results

(1627 UTC 13 January 2023)
Data provider http://aviationweather.gov/metar/data/
 
METAR text: YSSY 131600Z 03007KT 9999 SCT025 SCT055 23/18 Q1017 RF00.0/000.0
Conditions at: YSSY (SYDNEY INTL AIRP, AU) observed 1600 UTC 13 January 2023
Temperature: 23.0°C (73°F)
Dewpoint: 18.0°C (64°F) [RH = 73%]
Pressure (altimeter): 30.03 inches Hg (1017.0 mb)
Winds: from the NNE (30 degrees) at 8 MPH (7 knots; 3.6 m/s)
Visibility: 6 or more miles (10+ km)
Ceiling: at least 12,000 feet AGL
Clouds: scattered clouds at 2500 feet AGL
scattered clouds at 5500 feet AGL
Weather: no significant weather observed at this time

METAR text: YSSY 131530Z 03008KT 9999 FEW022 SCT050 23/18 Q1018 RF00.0/000.0
Conditions at: YSSY (SYDNEY INTL AIRP, AU) observed 1530 UTC 13 January 2023
Temperature: 23.0°C (73°F)
Dewpoint: 18.0°C (64°F) [RH = 73%]
Pressure (altimeter): 30.06 inches Hg (1018.0 mb)
Winds: from the NNE (30 degrees) at 9 MPH (8 knots; 4.1 m/s)
Visibility: 6 or more miles (10+ km)
Ceiling: at least 12,000 feet AGL
Clouds: few clouds at 2200 feet AGL
scattered clouds at 5000 feet AGL
Weather: no significant weather observed at this time

Forecast for: YSSY (SYDNEY INTL AIRP, AU)
Text: TAF YSSY 131408Z 1315/1418 04008KT 9999 SCT020
Forecast period: 1500 to 2300 UTC 13 January 2023
Forecast type: FROM: standard forecast or significant change
Winds: from the NE (40 degrees) at 9 MPH (8 knots; 4.1 m/s)
Visibility: 6 or more miles (10+ km)
Ceiling: at least 12,000 feet AGL
Clouds: scattered clouds at 2000 feet AGL
Weather: no significant weather forecast for this period
Text: FM132300 04012KT 9999 SCT025
Forecast period: 2300 UTC 13 January 2023 to 0200 UTC 14 January 2023
Forecast type: FROM: standard forecast or significant change
Winds: from the NE (40 degrees) at 14 MPH (12 knots; 6.2 m/s)
Visibility: 6 or more miles (10+ km)
Ceiling: at least 12,000 feet AGL
Clouds: scattered clouds at 2500 feet AGL
Weather: no significant weather forecast for this period
Text: FM140200 06018KT 9999 SCT040
Forecast period: 0200 to 1000 UTC 14 January 2023
Forecast type: FROM: standard forecast or significant change
Winds: from the ENE (60 degrees) at 21 MPH (18 knots; 9.3 m/s)
Visibility: 6 or more miles (10+ km)
Ceiling: at least 12,000 feet AGL
Clouds: scattered clouds at 4000 feet AGL
Weather: no significant weather forecast for this period
Text: FM141000 04011KT 9999 SCT025
Forecast period: 1000 to 1800 UTC 14 January 2023
Forecast type: FROM: standard forecast or significant change
Winds: from the NE (40 degrees) at 13 MPH (11 knots; 5.7 m/s)
Visibility: 6 or more miles (10+ km)
Ceiling: at least 12,000 feet AGL
Clouds: scattered clouds at 2500 feet AGL
Weather: no significant weather forecast for this period